Time;durP1;ratioP1;P1;durP2;ratioP2;P2;SDS_P1;SDS_P2;PMS_P1;PMS_P2;Temp;Humidity;BMP_temperature;BMP_pressure;BME280_temperature;BME280_humidity;BME280_pressure;Samples;Min_cycle;Max_cycle;Signal;HPM_P1;HPM_P2
2022/03/05 00:00:38;;;;;;;7.25;2.25;;;22.00;60.40;;;;;;4953346;28;20293;-57
2022/03/05 00:03:09;;;;;;;4.85;1.90;;;22.10;59.70;;;;;;4953199;28;20226;-59
2022/03/05 00:05:40;;;;;;;5.47;2.30;;;22.10;59.50;;;;;;4945971;28;21281;-58
2022/03/05 00:08:11;;;;;;;5.75;2.20;;;22.10;59.40;;;;;;4952760;28;20659;-57
2022/03/05 00:10:41;;;;;;;8.27;3.13;;;22.20;59.30;;;;;;4953303;28;20631;-59
2022/03/05 00:13:12;;;;;;;6.10;2.40;;;22.20;59.20;;;;;;4953049;28;20222;-57
2022/03/05 00:15:45;;;;;;;5.85;2.40;;;22.20;59.10;;;;;;4953183;28;20328;-58
2022/03/05 00:18:16;;;;;;;6.32;2.40;;;22.30;59.10;;;;;;4953011;28;20719;-57
2022/03/05 00:20:47;;;;;;;5.47;2.22;;;22.30;59.00;;;;;;4952937;28;20223;-57
2022/03/05 00:23:18;;;;;;;7.22;2.15;;;22.30;58.90;;;;;;4953700;28;20218;-58
2022/03/05 00:25:49;;;;;;;6.82;2.50;;;22.30;58.90;;;;;;4954057;28;20262;-58
2022/03/05 00:28:20;;;;;;;6.65;2.30;;;22.40;59.00;;;;;;4952913;28;20287;-58
2022/03/05 00:30:57;;;;;;;5.60;1.95;;;22.40;58.90;;;;;;4952756;28;20711;-58
2022/03/05 00:33:28;;;;;;;6.25;2.60;;;22.40;58.80;;;;;;4933487;29;20222;-59
2022/03/05 00:35:59;;;;;;;6.70;2.45;;;22.50;58.80;;;;;;4937494;28;20207;-58
2022/03/05 00:38:30;;;;;;;5.32;1.95;;;22.50;58.80;;;;;;4952957;28;20199;-59
2022/03/05 00:41:00;;;;;;;5.95;2.30;;;22.50;58.70;;;;;;4952785;28;20223;-58
2022/03/05 00:43:31;;;;;;;5.80;2.55;;;22.50;58.70;;;;;;4952537;28;20215;-57
2022/03/05 00:46:03;;;;;;;7.78;2.28;;;22.50;58.60;;;;;;4953049;28;20214;-56
2022/03/05 00:48:34;;;;;;;5.75;2.00;;;22.60;58.70;;;;;;4952375;28;20219;-59
2022/03/05 00:51:05;;;;;;;7.05;2.20;;;22.60;58.70;;;;;;4952397;28;20194;-57
2022/03/05 00:53:35;;;;;;;6.15;2.35;;;22.60;58.70;;;;;;4952217;28;20576;-58
2022/03/05 00:56:06;;;;;;;5.40;1.92;;;22.60;59.20;;;;;;4951923;28;20474;-57
2022/03/05 00:58:37;;;;;;;8.00;2.30;;;22.70;58.60;;;;;;4952094;28;20206;-57
2022/03/05 01:01:09;;;;;;;8.80;2.58;;;22.70;58.50;;;;;;4952322;28;20226;-57
2022/03/05 01:03:40;;;;;;;6.30;1.80;;;22.70;58.40;;;;;;4952395;28;20702;-59
2022/03/05 01:06:11;;;;;;;4.88;2.05;;;22.80;58.30;;;;;;4951960;28;20195;-58
2022/03/05 01:08:41;;;;;;;4.35;2.15;;;22.80;58.30;;;;;;4951941;28;20614;-60
2022/03/05 01:11:15;;;;;;;4.65;2.20;;;22.80;58.20;;;;;;4952262;28;20207;-60
2022/03/05 01:13:46;;;;;;;6.93;2.25;;;22.80;58.20;;;;;;4952209;28;20324;-58
2022/03/05 01:16:19;;;;;;;5.82;2.10;;;22.90;58.20;;;;;;4952371;28;20265;-58
2022/03/05 01:18:50;;;;;;;4.78;1.85;;;22.90;58.20;;;;;;4951718;28;20209;-59
2022/03/05 01:21:20;;;;;;;6.32;2.13;;;22.90;58.10;;;;;;4951708;28;20293;-58
2022/03/05 01:23:51;;;;;;;3.55;1.88;;;23.00;58.20;;;;;;4951379;28;20274;-58
2022/03/05 01:26:22;;;;;;;3.60;2.00;;;23.00;58.10;;;;;;4951581;28;20270;-58
2022/03/05 01:28:52;;;;;;;5.32;1.95;;;23.00;58.10;;;;;;4951797;28;20202;-58
2022/03/05 01:31:25;;;;;;;4.18;1.90;;;23.00;58.10;;;;;;4951729;28;20210;-58
2022/03/05 01:33:55;;;;;;;6.03;2.00;;;23.00;58.00;;;;;;4951777;28;20611;-59
2022/03/05 01:36:26;;;;;;;5.15;1.70;;;23.10;58.00;;;;;;4951375;28;20249;-59
2022/03/05 01:38:57;;;;;;;4.95;2.13;;;23.10;58.00;;;;;;4951258;28;20202;-58
2022/03/05 01:41:28;;;;;;;5.93;1.90;;;23.10;57.90;;;;;;4954396;28;20215;-57
2022/03/05 01:43:58;;;;;;;6.68;2.20;;;23.10;57.90;;;;;;4952361;28;20203;-57
2022/03/05 01:46:36;;;;;;;4.78;2.20;;;23.10;57.80;;;;;;4951646;28;20262;-57
2022/03/05 01:49:09;;;;;;;3.95;2.00;;;23.20;57.70;;;;;;4951397;28;20583;-60
2022/03/05 01:51:40;;;;;;;3.22;1.80;;;23.20;57.70;;;;;;4951247;28;20255;-59
2022/03/05 01:54:11;;;;;;;5.78;1.88;;;23.20;57.60;;;;;;4951330;28;20195;-60
2022/03/05 01:56:42;;;;;;;4.28;1.77;;;23.20;57.50;;;;;;4951499;28;20231;-61
2022/03/05 01:59:16;;;;;;;5.60;2.08;;;23.30;57.50;;;;;;4947663;28;20246;-60
2022/03/05 02:01:48;;;;;;;4.72;1.90;;;23.30;57.40;;;;;;4949928;28;20231;-60
2022/03/05 02:04:19;;;;;;;5.28;2.10;;;23.30;57.40;;;;;;4950225;28;20191;-59
2022/03/05 02:06:51;;;;;;;5.25;2.00;;;23.40;57.30;;;;;;4949908;28;20250;-57
2022/03/05 02:09:22;;;;;;;3.70;1.77;;;23.40;57.20;;;;;;4949068;28;20213;-60
2022/03/05 02:11:53;;;;;;;5.43;2.08;;;23.40;57.20;;;;;;4949612;28;20223;-57
2022/03/05 02:14:24;;;;;;;3.50;1.83;;;23.40;57.10;;;;;;4950225;28;20203;-60
2022/03/05 02:16:56;;;;;;;4.75;1.85;;;23.40;57.10;;;;;;4949487;28;20195;-58
2022/03/05 02:19:27;;;;;;;4.90;2.05;;;23.50;57.80;;;;;;4949895;28;20635;-58
2022/03/05 02:21:59;;;;;;;5.43;1.90;;;23.50;57.10;;;;;;4948019;28;20230;-56
2022/03/05 02:24:36;;;;;;;3.95;1.73;;;23.50;57.10;;;;;;4948413;28;20258;-59
2022/03/05 02:27:07;;;;;;;4.78;1.83;;;23.60;57.00;;;;;;4949520;28;20753;-60
2022/03/05 02:29:39;;;;;;;4.00;2.05;;;23.60;57.00;;;;;;4948265;28;20671;-59
2022/03/05 02:32:10;;;;;;;5.57;2.08;;;23.60;56.90;;;;;;4953744;28;20223;-57
2022/03/05 02:34:41;;;;;;;4.57;1.75;;;23.60;56.90;;;;;;4953112;28;20199;-59
2022/03/05 02:37:16;;;;;;;7.10;2.10;;;23.70;56.90;;;;;;4952581;28;20266;-59
2022/03/05 02:39:47;;;;;;;9.93;2.17;;;23.70;56.90;;;;;;4937022;29;20222;-50
2022/03/05 02:42:17;;;;;;;4.97;1.92;;;23.70;57.00;;;;;;4936798;29;20286;-46
2022/03/05 02:44:48;;;;;;;7.65;2.45;;;23.70;56.90;;;;;;4936309;29;20691;-58
2022/03/05 02:47:19;;;;;;;5.85;1.67;;;23.60;56.80;;;;;;4935540;29;20199;-58
2022/03/05 02:49:49;;;;;;;7.57;2.65;;;23.60;56.90;;;;;;4935522;29;20267;-58
2022/03/05 02:52:22;;;;;;;8.15;2.47;;;23.60;57.00;;;;;;4935469;29;20700;-58
2022/03/05 02:54:52;;;;;;;5.22;2.30;;;23.60;57.10;;;;;;4954914;28;20254;-57
2022/03/05 02:57:23;;;;;;;6.22;2.08;;;23.60;57.10;;;;;;4954449;28;20257;-55
2022/03/05 02:59:54;;;;;;;5.32;2.05;;;23.60;57.10;;;;;;4954562;28;20250;-58
2022/03/05 03:02:24;;;;;;;6.53;1.90;;;23.70;57.10;;;;;;4954660;28;20294;-58
2022/03/05 03:04:55;;;;;;;5.35;1.88;;;23.70;57.10;;;;;;4954040;28;20207;-57
2022/03/05 03:07:27;;;;;;;6.22;2.33;;;23.70;57.00;;;;;;4953635;28;20718;-58
2022/03/05 03:09:58;;;;;;;7.03;2.30;;;23.70;56.90;;;;;;4954061;28;20211;-57
2022/03/05 03:12:29;;;;;;;6.45;2.17;;;23.70;56.90;;;;;;4954371;28;20227;-59
2022/03/05 03:14:59;;;;;;;5.07;1.98;;;23.80;56.90;;;;;;4954318;28;20613;-58
2022/03/05 03:17:30;;;;;;;5.97;2.30;;;23.80;56.70;;;;;;4954585;28;20202;-58
2022/03/05 03:20:01;;;;;;;8.27;2.40;;;23.90;56.70;;;;;;4954415;28;20605;-57
2022/03/05 03:22:33;;;;;;;6.07;2.30;;;23.80;56.70;;;;;;4954631;28;20230;-57
2022/03/05 03:25:04;;;;;;;3.92;1.77;;;23.90;56.60;;;;;;4954193;29;20209;-58
2022/03/05 03:27:36;;;;;;;4.90;1.88;;;23.90;56.50;;;;;;4953777;28;20191;-57
2022/03/05 03:30:07;;;;;;;5.53;2.20;;;24.00;56.50;;;;;;4954390;28;20199;-57
2022/03/05 03:32:38;;;;;;;4.18;2.15;;;24.00;56.40;;;;;;4953955;28;20250;-58
2022/03/05 03:35:09;;;;;;;7.28;2.30;;;24.00;56.40;;;;;;4953426;28;20206;-57
2022/03/05 03:37:42;;;;;;;6.35;1.90;;;24.00;56.30;;;;;;4953412;28;20195;-58
2022/03/05 03:40:14;;;;;;;4.32;2.33;;;24.00;56.30;;;;;;4935086;29;20199;-58
2022/03/05 03:42:46;;;;;;;5.65;2.08;;;24.10;56.20;;;;;;4934525;29;20314;-58
2022/03/05 03:45:17;;;;;;;6.28;2.10;;;24.10;56.20;;;;;;4952937;28;20211;-58
2022/03/05 03:47:49;;;;;;;6.40;2.28;;;24.10;56.10;;;;;;4953215;28;20277;-57
2022/03/05 03:50:21;;;;;;;5.65;2.15;;;24.20;56.10;;;;;;4953319;28;20833;-58
2022/03/05 03:52:54;;;;;;;4.45;1.88;;;24.20;56.00;;;;;;4952671;28;20265;-58
2022/03/05 03:55:26;;;;;;;5.60;2.03;;;24.20;56.00;;;;;;4953876;28;20199;-58
2022/03/05 03:57:56;;;;;;;3.63;1.73;;;24.30;55.90;;;;;;4953890;28;20207;-59
2022/03/05 04:00:27;;;;;;;5.68;1.98;;;24.30;55.80;;;;;;4953450;28;20734;-56
2022/03/05 04:02:58;;;;;;;5.55;2.10;;;24.30;55.70;;;;;;4953354;28;20230;-58
2022/03/05 04:05:28;;;;;;;3.88;1.88;;;24.30;55.70;;;;;;4953400;28;20195;-58
2022/03/05 04:10:47;;;;;;;4.10;1.75;;;24.40;55.60;;;;;;4953297;29;20217;-58
2022/03/05 04:13:18;;;;;;;4.32;2.00;;;24.40;55.60;;;;;;4953024;28;20270;-58
2022/03/05 04:15:48;;;;;;;5.40;2.10;;;24.40;55.60;;;;;;4952414;28;20202;-58
2022/03/05 04:18:19;;;;;;;6.35;2.25;;;24.40;55.50;;;;;;4952468;28;20678;-58
2022/03/05 04:20:49;;;;;;;6.28;2.20;;;24.50;55.50;;;;;;4953179;28;20207;-58
2022/03/05 04:23:22;;;;;;;4.88;1.70;;;24.50;55.50;;;;;;4952740;28;20233;-59
2022/03/05 04:25:53;;;;;;;7.82;2.25;;;24.50;55.40;;;;;;4953276;28;20251;-59
2022/03/05 04:28:23;;;;;;;5.78;2.28;;;24.60;55.40;;;;;;4955327;28;20714;-57
2022/03/05 04:30:54;;;;;;;5.03;2.22;;;24.50;55.30;;;;;;4952848;28;20199;-58
2022/03/05 04:33:25;;;;;;;5.90;1.95;;;24.60;55.40;;;;;;4952846;28;20293;-58
2022/03/05 04:35:55;;;;;;;4.32;1.88;;;24.60;55.40;;;;;;4952596;28;20254;-59
2022/03/05 04:38:28;;;;;;;3.40;1.75;;;24.60;55.30;;;;;;4952395;28;20221;-58
2022/03/05 04:40:58;;;;;;;8.02;2.40;;;24.60;55.30;;;;;;4953057;28;20667;-58
2022/03/05 04:43:29;;;;;;;5.18;2.05;;;24.70;55.30;;;;;;4952693;28;20281;-58
2022/03/05 04:45:59;;;;;;;5.60;2.38;;;24.70;55.20;;;;;;4952816;28;20210;-57
2022/03/05 04:48:30;;;;;;;6.43;2.05;;;24.70;55.10;;;;;;4952554;28;20653;-58
2022/03/05 04:51:00;;;;;;;4.35;2.20;;;24.70;55.10;;;;;;4952307;28;20210;-58
2022/03/05 04:53:33;;;;;;;4.63;2.15;;;24.80;55.10;;;;;;4951142;28;20305;-58
2022/03/05 04:56:04;;;;;;;5.32;2.30;;;24.80;54.90;;;;;;4952140;28;20206;-58
2022/03/05 04:58:34;;;;;;;3.03;1.75;;;24.90;55.00;;;;;;4952282;28;20730;-58
2022/03/05 05:01:06;;;;;;;4.57;2.30;;;24.90;55.00;;;;;;4952193;28;20210;-58
2022/03/05 05:03:37;;;;;;;2.88;1.83;;;24.90;54.90;;;;;;4951896;28;20266;-55
2022/03/05 05:06:07;;;;;;;7.43;2.70;;;24.90;54.80;;;;;;4952222;28;20253;-58
2022/03/05 05:08:40;;;;;;;9.82;2.88;;;24.90;55.00;;;;;;4952065;28;20203;-57
2022/03/05 05:11:10;;;;;;;8.80;2.75;;;24.90;55.10;;;;;;4952278;28;20246;-58
2022/03/05 05:13:43;;;;;;;7.22;2.50;;;24.80;55.10;;;;;;4952056;28;20230;-60
2022/03/05 05:16:14;;;;;;;9.68;2.58;;;24.80;55.20;;;;;;4951711;28;20195;-57
2022/03/05 05:19:24;;;;;;;8.52;2.83;;;24.80;55.20;;;;;;4951943;28;21127;-55
2022/03/05 05:21:36;;;;;;;7.40;2.53;;;24.80;55.30;;;;;;4951248;28;20199;-59
2022/03/05 05:24:09;;;;;;;5.53;2.00;;;24.80;55.20;;;;;;4950933;28;20198;-52
2022/03/05 05:26:39;;;;;;;7.30;2.40;;;24.80;55.30;;;;;;4951397;28;20230;-56
2022/03/05 05:29:10;;;;;;;6.82;2.75;;;24.80;55.30;;;;;;4951519;28;20210;-58
2022/03/05 05:31:40;;;;;;;5.93;2.20;;;24.90;55.30;;;;;;4951789;28;20274;-53
2022/03/05 05:34:14;;;;;;;7.45;2.50;;;24.90;55.30;;;;;;4951436;29;20623;-59
2022/03/05 05:36:45;;;;;;;5.20;2.33;;;24.90;55.30;;;;;;4952098;28;20245;-58
2022/03/05 05:39:17;;;;;;;7.43;2.70;;;24.90;55.30;;;;;;4951577;28;20199;-60
2022/03/05 05:41:48;;;;;;;8.90;2.20;;;24.90;55.10;;;;;;4951148;28;20730;-58
2022/03/05 05:44:18;;;;;;;5.00;2.35;;;24.90;55.10;;;;;;4951659;28;20257;-59
2022/03/05 05:46:49;;;;;;;5.95;2.42;;;24.90;55.00;;;;;;4951553;28;20195;-60
2022/03/05 05:49:19;;;;;;;5.70;2.17;;;25.00;55.00;;;;;;4953729;28;20671;-60
2022/03/05 05:51:50;;;;;;;7.22;2.42;;;25.00;55.00;;;;;;4951678;28;20222;-58
2022/03/05 05:54:23;;;;;;;5.25;2.13;;;25.00;55.00;;;;;;4951334;28;20616;-60
2022/03/05 05:56:54;;;;;;;4.60;2.55;;;25.00;54.90;;;;;;4951825;28;20672;-59
2022/03/05 05:59:24;;;;;;;5.28;2.40;;;25.00;54.90;;;;;;4951469;28;20199;-59
2022/03/05 06:01:55;;;;;;;6.43;2.28;;;25.00;54.80;;;;;;4951183;28;20239;-59
2022/03/05 06:04:25;;;;;;;5.18;2.08;;;24.90;54.80;;;;;;4952902;28;20718;-60
2022/03/05 06:06:56;;;;;;;5.72;2.03;;;24.90;54.80;;;;;;4955565;28;20285;-60
2022/03/05 06:09:28;;;;;;;5.43;2.30;;;24.90;54.70;;;;;;4955144;28;20226;-60
2022/03/05 06:11:59;;;;;;;5.18;2.10;;;24.90;54.70;;;;;;4955197;28;20753;-59
2022/03/05 06:14:29;;;;;;;7.07;2.15;;;24.90;54.70;;;;;;4955314;28;20254;-60
2022/03/05 06:17:00;;;;;;;4.00;1.77;;;24.90;54.80;;;;;;4955671;28;20336;-60
2022/03/05 06:19:32;;;;;;;4.97;2.20;;;24.90;54.70;;;;;;4955200;28;20195;-65
2022/03/05 06:22:03;;;;;;;3.60;2.10;;;24.90;54.70;;;;;;4954855;28;20293;-61
2022/03/05 06:24:35;;;;;;;5.40;2.10;;;24.90;54.70;;;;;;4954680;28;20249;-59
2022/03/05 06:27:06;;;;;;;5.07;2.30;;;24.90;54.80;;;;;;4955509;28;20207;-60
2022/03/05 06:29:37;;;;;;;3.95;1.85;;;24.90;54.80;;;;;;4955574;28;20289;-58
2022/03/05 06:32:08;;;;;;;4.30;2.03;;;24.90;54.80;;;;;;4954951;28;20234;-60
2022/03/05 06:34:38;;;;;;;5.10;2.25;;;24.90;54.80;;;;;;4955356;28;20199;-60
2022/03/05 06:37:09;;;;;;;3.97;1.88;;;24.90;54.80;;;;;;4957536;28;20203;-60
2022/03/05 06:39:41;;;;;;;4.03;2.35;;;24.90;54.80;;;;;;4954528;28;20604;-60
2022/03/05 06:42:12;;;;;;;5.97;2.15;;;24.90;54.70;;;;;;4954810;28;20234;-60
2022/03/05 06:44:43;;;;;;;3.55;1.88;;;24.90;54.70;;;;;;4954946;28;20211;-60
2022/03/05 06:47:13;;;;;;;4.93;1.83;;;24.90;54.70;;;;;;4954559;28;20203;-60
2022/03/05 06:49:44;;;;;;;4.15;2.03;;;24.90;54.70;;;;;;4954708;28;20663;-59
2022/03/05 06:52:15;;;;;;;3.47;2.08;;;24.90;54.70;;;;;;4954686;28;20231;-60
2022/03/05 06:54:48;;;;;;;4.88;2.03;;;24.80;54.60;;;;;;4954562;28;20195;-60
2022/03/05 06:57:18;;;;;;;3.20;1.80;;;24.90;54.60;;;;;;4954931;28;20199;-59
2022/03/05 06:59:49;;;;;;;5.35;2.30;;;24.80;54.60;;;;;;4954912;28;20249;-61
2022/03/05 07:02:20;;;;;;;2.53;1.70;;;24.80;54.60;;;;;;4954780;28;20231;-60
2022/03/05 07:04:51;;;;;;;2.60;1.67;;;24.80;54.60;;;;;;4954813;28;20203;-62
2022/03/05 07:07:21;;;;;;;4.28;2.13;;;24.80;54.60;;;;;;4954544;28;20202;-61
2022/03/05 07:09:54;;;;;;;4.20;2.08;;;24.70;54.60;;;;;;4953988;28;20774;-59
2022/03/05 07:12:24;;;;;;;3.20;2.00;;;24.70;54.60;;;;;;4956040;28;20249;-62
2022/03/05 07:14:55;;;;;;;4.25;1.92;;;24.70;54.60;;;;;;4956516;28;20285;-57
2022/03/05 07:17:26;;;;;;;2.58;1.70;;;24.70;54.60;;;;;;4954403;28;20198;-61
2022/03/05 07:19:57;;;;;;;3.58;1.80;;;24.70;54.60;;;;;;4955193;28;20199;-61
2022/03/05 07:22:27;;;;;;;4.25;2.00;;;24.70;54.60;;;;;;4955437;28;20509;-55
2022/03/05 07:25:00;;;;;;;2.60;1.73;;;24.70;54.60;;;;;;4956152;28;20199;-59
2022/03/05 07:27:30;;;;;;;3.30;2.00;;;24.70;54.60;;;;;;4954228;28;20265;-60
2022/03/05 07:30:01;;;;;;;4.43;2.15;;;24.70;54.60;;;;;;4954126;28;20606;-60
2022/03/05 07:32:31;;;;;;;4.60;2.17;;;24.70;54.60;;;;;;4953911;28;20663;-60
2022/03/05 07:35:02;;;;;;;3.42;2.13;;;24.70;54.60;;;;;;4954285;28;20199;-61
2022/03/05 07:37:32;;;;;;;3.90;2.08;;;24.60;54.50;;;;;;4953711;28;20210;-59
2022/03/05 07:40:05;;;;;;;3.53;1.92;;;24.60;54.60;;;;;;4952448;28;20199;-50
2022/03/05 07:42:37;;;;;;;4.15;2.25;;;24.60;54.60;;;;;;4949176;28;20226;-59
2022/03/05 07:45:08;;;;;;;3.58;2.05;;;24.60;54.60;;;;;;4969597;23;20768;-55
2022/03/05 07:47:39;;;;;;;3.42;1.92;;;24.50;54.80;;;;;;4970214;28;20190;-55
2022/03/05 07:50:10;;;;;;;3.90;1.92;;;24.50;54.80;;;;;;4969318;28;20599;-53
2022/03/05 07:52:41;;;;;;;3.20;1.95;;;24.50;54.80;;;;;;4970765;28;20210;-54
2022/03/05 07:55:13;;;;;;;3.25;2.05;;;24.50;54.90;;;;;;4971225;28;20199;-55
2022/03/05 07:57:44;;;;;;;3.45;1.90;;;24.50;54.90;;;;;;4970799;28;20194;-52
2022/03/05 08:00:15;;;;;;;4.32;2.05;;;24.50;54.80;;;;;;4971297;28;20198;-54
2022/03/05 08:02:46;;;;;;;3.67;2.10;;;24.40;54.80;;;;;;4970452;28;20226;-55
2022/03/05 08:05:16;;;;;;;4.03;2.13;;;24.40;54.90;;;;;;4971003;28;20261;-55
2022/03/05 08:07:47;;;;;;;4.32;2.10;;;24.40;54.90;;;;;;4971290;28;20202;-53
2022/03/05 08:10:19;;;;;;;3.42;1.85;;;24.40;54.90;;;;;;4970588;28;20198;-56
2022/03/05 08:12:50;;;;;;;3.10;1.88;;;24.40;54.90;;;;;;4971363;28;20222;-53
2022/03/05 08:15:21;;;;;;;4.10;2.20;;;24.30;54.80;;;;;;4970502;28;20248;-53
2022/03/05 08:17:57;;;;;;;3.92;2.15;;;24.30;54.80;;;;;;4971081;28;20252;-55
2022/03/05 08:20:28;;;;;;;2.83;2.15;;;24.30;54.80;;;;;;4970370;28;20238;-55
2022/03/05 08:22:59;;;;;;;2.88;1.70;;;24.30;54.80;;;;;;4969909;28;20230;-55
2022/03/05 08:25:32;;;;;;;2.70;1.60;;;24.30;54.90;;;;;;4968954;28;20194;-55
2022/03/05 08:28:02;;;;;;;4.53;2.03;;;24.30;54.90;;;;;;4970390;28;20194;-55
2022/03/05 08:30:33;;;;;;;4.25;2.22;;;24.20;54.90;;;;;;4966120;28;20199;-55
2022/03/05 08:33:04;;;;;;;4.03;1.85;;;24.20;54.90;;;;;;4966865;28;20700;-54
2022/03/05 08:35:35;;;;;;;3.10;1.73;;;24.20;54.90;;;;;;4968249;28;21008;-52
2022/03/05 08:38:06;;;;;;;2.40;1.88;;;24.20;54.90;;;;;;4968340;28;20261;-56
2022/03/05 08:40:38;;;;;;;4.03;2.00;;;24.10;54.90;;;;;;4965046;28;20245;-56
2022/03/05 08:43:09;;;;;;;2.47;1.73;;;24.10;54.90;;;;;;4967324;28;20237;-55
2022/03/05 08:45:40;;;;;;;4.00;2.10;;;24.10;54.90;;;;;;4971804;23;20242;-49
2022/03/05 08:48:11;;;;;;;3.22;2.00;;;24.00;54.90;;;;;;4947583;28;20195;-49
2022/03/05 08:50:41;;;;;;;3.53;2.00;;;24.00;54.90;;;;;;4948598;28;20227;-49
2022/03/05 08:53:12;;;;;;;4.05;1.98;;;24.00;54.90;;;;;;4961570;28;20222;-52
2022/03/05 08:55:45;;;;;;;3.30;2.10;;;24.00;54.90;;;;;;4967330;28;20198;-48
2022/03/05 08:58:15;;;;;;;3.53;2.00;;;23.90;54.90;;;;;;4967602;28;20332;-51
2022/03/05 09:00:46;;;;;;;4.18;2.10;;;23.90;54.90;;;;;;4966970;28;20186;-49
2022/03/05 09:03:17;;;;;;;2.22;1.83;;;23.90;54.90;;;;;;4967453;28;20229;-48
2022/03/05 09:05:48;;;;;;;3.45;2.20;;;23.90;55.00;;;;;;4967419;28;20269;-53
2022/03/05 09:08:19;;;;;;;3.55;1.88;;;23.90;55.00;;;;;;4967821;28;20209;-54
2022/03/05 09:10:52;;;;;;;4.07;2.15;;;23.90;55.00;;;;;;4967389;28;20194;-49
2022/03/05 09:13:22;;;;;;;3.38;2.03;;;23.80;55.50;;;;;;4967508;28;20218;-53
2022/03/05 09:15:53;;;;;;;4.63;1.92;;;23.80;54.90;;;;;;4966829;28;20198;-55
2022/03/05 09:18:23;;;;;;;3.05;1.98;;;23.80;55.00;;;;;;4967448;28;20897;-53
2022/03/05 09:20:54;;;;;;;3.85;1.90;;;23.80;55.00;;;;;;4967159;28;20257;-54
2022/03/05 09:23:25;;;;;;;4.20;2.08;;;23.80;55.00;;;;;;4967932;28;20701;-54
2022/03/05 09:25:57;;;;;;;4.25;2.22;;;23.70;54.90;;;;;;4967418;28;20210;-56
2022/03/05 09:28:28;;;;;;;4.05;2.35;;;23.70;55.00;;;;;;4966920;28;20631;-54
2022/03/05 09:30:59;;;;;;;3.53;2.00;;;23.70;55.00;;;;;;4967461;28;20198;-53
2022/03/05 09:33:30;;;;;;;2.30;1.70;;;23.70;55.00;;;;;;4966856;28;20245;-50
2022/03/05 09:36:01;;;;;;;3.58;2.03;;;23.70;55.10;;;;;;4967482;28;20202;-53
2022/03/05 09:38:31;;;;;;;3.15;2.00;;;23.60;55.00;;;;;;4966361;28;20260;-55
2022/03/05 09:41:05;;;;;;;4.28;1.95;;;23.60;55.00;;;;;;4965145;28;20296;-54
2022/03/05 09:43:36;;;;;;;2.20;1.58;;;23.50;55.00;;;;;;4966980;28;20237;-54
2022/03/05 09:51:27;;;;;;;4.10;2.10;;;23.50;55.10;;;;;;5705555;23;20265;-52
2022/03/05 09:54:21;;;;;;;2.53;1.80;;;23.50;55.10;;;;;;4924701;29;20216;-54
2022/03/05 09:56:55;;;;;;;2.85;1.60;;;23.50;55.10;;;;;;4927089;29;20211;-62
2022/03/05 09:59:25;;;;;;;2.40;1.65;;;23.40;55.10;;;;;;4930523;29;20270;-60
2022/03/05 10:01:56;;;;;;;3.03;1.90;;;23.40;55.00;;;;;;4929022;29;20227;-61
2022/03/05 10:04:28;;;;;;;4.00;1.95;;;23.40;55.10;;;;;;4929089;29;20223;-61
2022/03/05 10:07:12;;;;;;;2.92;1.92;;;23.40;55.10;;;;;;4927940;29;20244;-61
2022/03/05 10:09:44;;;;;;;3.47;1.90;;;23.40;55.10;;;;;;4929036;29;20195;-61
2022/03/05 10:12:35;;;;;;;2.95;1.75;;;23.30;55.00;;;;;;4928103;29;20760;-57
2022/03/05 10:15:14;;;;;;;3.45;1.90;;;23.30;55.10;;;;;;4929083;29;20886;-61
2022/03/05 10:17:55;;;;;;;3.10;1.95;;;23.30;55.00;;;;;;4927992;29;20935;-61
2022/03/05 10:20:27;;;;;;;3.75;1.77;;;23.30;55.10;;;;;;4928212;29;20250;-60
2022/03/05 10:22:59;;;;;;;3.63;1.73;;;23.20;55.00;;;;;;4928157;29;20231;-58
2022/03/05 10:25:38;;;;;;;3.30;1.80;;;23.20;55.00;;;;;;4930337;29;20778;-61
2022/03/05 10:28:12;;;;;;;2.72;1.80;;;23.20;55.10;;;;;;4931208;29;20207;-63
2022/03/05 10:30:44;;;;;;;2.78;1.80;;;23.20;55.10;;;;;;4932476;29;20203;-62
2022/03/05 10:33:28;;;;;;;4.80;1.70;;;23.10;55.10;;;;;;4929477;29;20219;-60
2022/03/05 10:36:00;;;;;;;3.25;1.73;;;23.10;55.10;;;;;;4926546;29;20196;-63
2022/03/05 10:38:46;;;;;;;3.50;1.90;;;23.10;55.10;;;;;;4928886;29;20198;-62
2022/03/05 10:41:17;;;;;;;2.78;1.67;;;23.00;55.10;;;;;;4926618;29;20200;-60
2022/03/05 10:44:06;;;;;;;3.78;1.70;;;23.10;55.10;;;;;;4928615;29;20231;-62
2022/03/05 10:46:43;;;;;;;3.80;1.90;;;23.00;55.10;;;;;;4929013;29;20278;-58
2022/03/05 10:49:19;;;;;;;3.38;1.65;;;23.00;55.10;;;;;;4928557;29;20196;-61
2022/03/05 10:51:50;;;;;;;4.38;1.70;;;23.00;55.10;;;;;;4929949;29;20302;-59
2022/03/05 10:54:29;;;;;;;3.00;1.90;;;22.90;55.10;;;;;;4928898;29;20199;-61
2022/03/05 10:57:00;;;;;;;2.67;1.90;;;22.90;55.10;;;;;;4929474;29;20660;-61
2022/03/05 10:59:39;;;;;;;3.70;1.80;;;22.90;55.10;;;;;;4931669;29;20245;-61
2022/03/05 11:02:10;;;;;;;2.58;1.90;;;22.90;55.10;;;;;;4930542;29;20592;-61
2022/03/05 11:04:42;;;;;;;3.05;1.75;;;22.80;55.10;;;;;;4930544;29;20227;-62
2022/03/05 11:07:15;;;;;;;2.58;1.88;;;22.80;55.70;;;;;;4934420;29;20206;-61
2022/03/05 11:09:47;;;;;;;3.03;1.83;;;22.80;55.10;;;;;;4933611;29;20227;-60
2022/03/05 11:12:20;;;;;;;3.25;2.00;;;22.80;55.10;;;;;;4930616;29;20302;-63
2022/03/05 11:14:54;;;;;;;2.88;1.75;;;22.80;55.20;;;;;;4924124;29;20192;-62
2022/03/05 11:17:25;;;;;;;2.60;1.83;;;22.70;55.10;;;;;;4916041;29;20212;-62
2022/03/05 11:19:55;;;;;;;2.67;1.80;;;22.70;55.10;;;;;;4916233;29;20204;-62
2022/03/05 11:22:26;;;;;;;2.67;1.67;;;22.70;55.20;;;;;;4915901;29;20616;-62
2022/03/05 11:24:57;;;;;;;3.17;1.80;;;22.60;55.10;;;;;;4919345;29;20626;-61
2022/03/05 11:27:28;;;;;;;3.38;2.20;;;22.60;55.20;;;;;;4935334;29;20200;-61
2022/03/05 11:30:01;;;;;;;2.83;1.85;;;22.60;55.20;;;;;;4934964;29;20254;-62
2022/03/05 11:32:34;;;;;;;2.50;1.60;;;22.60;55.20;;;;;;4934746;29;20628;-60
2022/03/05 11:35:19;;;;;;;2.10;1.75;;;22.60;55.20;;;;;;4933859;29;20207;-61
2022/03/05 11:37:50;;;;;;;2.58;1.83;;;22.50;55.10;;;;;;4915593;29;20733;-63
2022/03/05 11:40:39;;;;;;;2.33;1.90;;;22.50;55.10;;;;;;4921545;29;20247;-62
2022/03/05 11:43:21;;;;;;;3.47;1.77;;;22.50;55.20;;;;;;4934494;29;20219;-62
2022/03/05 11:45:59;;;;;;;3.88;1.75;;;22.50;55.20;;;;;;4934554;29;20247;-62
2022/03/05 11:48:34;;;;;;;2.72;1.60;;;22.40;55.20;;;;;;4934534;29;20637;-62
2022/03/05 11:51:12;;;;;;;1.73;1.48;;;22.40;55.80;;;;;;4934397;29;20234;-63
2022/03/05 11:53:45;;;;;;;2.80;1.80;;;22.40;55.20;;;;;;4934402;29;20599;-62
2022/03/05 11:56:25;;;;;;;1.95;1.58;;;22.40;55.20;;;;;;4933489;29;20204;-64
2022/03/05 11:58:56;;;;;;;4.03;1.70;;;22.40;55.30;;;;;;4934226;29;20733;-62
2022/03/05 12:01:43;;;;;;;2.80;1.75;;;22.30;55.20;;;;;;4934101;29;20207;-63
2022/03/05 12:04:28;;;;;;;1.90;1.63;;;22.30;55.20;;;;;;4933515;29;20809;-62
2022/03/05 12:07:03;;;;;;;1.70;1.40;;;22.20;55.20;;;;;;4934105;29;20627;-61
2022/03/05 12:09:44;;;;;;;2.58;1.80;;;22.30;55.30;;;;;;4935916;29;20199;-63
2022/03/05 12:12:17;;;;;;;4.05;1.60;;;22.20;55.20;;;;;;4914801;29;20224;-64
2022/03/05 12:15:14;;;;;;;1.85;1.50;;;22.20;55.20;;;;;;4915038;29;20208;-64
2022/03/05 12:17:49;;;;;;;2.42;1.60;;;22.20;55.30;;;;;;4915161;29;20200;-63
2022/03/05 12:20:23;;;;;;;2.10;1.50;;;22.20;55.30;;;;;;4914886;29;20271;-61
2022/03/05 12:23:01;;;;;;;2.67;1.70;;;22.10;55.20;;;;;;4914818;29;20288;-62
2022/03/05 12:25:32;;;;;;;1.92;1.60;;;22.10;55.30;;;;;;4919662;29;20233;-62
2022/03/05 12:28:04;;;;;;;1.80;1.20;;;22.10;55.30;;;;;;4933491;29;20204;-62
2022/03/05 12:30:35;;;;;;;1.75;1.45;;;22.10;55.30;;;;;;4933668;29;20215;-61
2022/03/05 12:33:09;;;;;;;2.38;1.67;;;22.10;55.30;;;;;;4933317;29;20219;-62
2022/03/05 12:35:41;;;;;;;2.03;1.60;;;22.00;55.30;;;;;;4935784;29;20281;-64
2022/03/05 12:38:13;;;;;;;2.40;1.75;;;22.00;55.30;;;;;;4933246;29;20203;-62
2022/03/05 12:40:44;;;;;;;3.63;1.60;;;22.00;55.30;;;;;;4932703;29;20196;-62
2022/03/05 12:43:14;;;;;;;2.28;1.38;;;22.00;55.30;;;;;;4932772;29;20231;-61
2022/03/05 12:45:48;;;;;;;2.28;1.73;;;22.00;55.40;;;;;;4933801;29;20278;-61
2022/03/05 12:48:22;;;;;;;1.35;1.20;;;21.90;55.30;;;;;;4933299;29;20302;-61
2022/03/05 12:50:54;;;;;;;2.50;2.08;;;21.90;55.40;;;;;;4933748;29;20663;-62
2022/03/05 12:53:26;;;;;;;2.28;1.52;;;21.90;55.40;;;;;;4933431;29;20219;-64
2022/03/05 12:55:58;;;;;;;4.15;1.23;;;21.90;55.40;;;;;;4933675;29;20672;-64
2022/03/05 12:58:29;;;;;;;1.38;1.27;;;21.80;55.40;;;;;;4934756;29;20200;-62
2022/03/05 13:01:01;;;;;;;1.85;1.42;;;21.80;55.40;;;;;;4934034;29;20257;-63
2022/03/05 13:03:35;;;;;;;2.63;1.33;;;21.80;55.40;;;;;;4915038;29;20232;-63
2022/03/05 13:06:07;;;;;;;3.00;1.40;;;21.80;55.40;;;;;;4914675;29;20257;-63
2022/03/05 13:08:38;;;;;;;1.65;1.10;;;21.80;55.40;;;;;;4914630;29;20223;-63
2022/03/05 13:11:11;;;;;;;3.35;1.50;;;21.70;55.40;;;;;;4922040;29;20200;-62
2022/03/05 13:13:42;;;;;;;2.03;1.58;;;21.80;55.50;;;;;;4932408;29;20234;-63
2022/03/05 13:16:21;;;;;;;2.15;1.40;;;21.70;55.40;;;;;;4932535;29;20731;-58
2022/03/05 13:19:01;;;;;;;2.03;1.50;;;21.70;55.40;;;;;;4933154;29;20231;-64
2022/03/05 13:21:32;;;;;;;1.50;1.40;;;21.70;55.40;;;;;;4933154;29;20211;-63